Time;durP1;ratioP1;P1;durP2;ratioP2;P2;SDS_P1;SDS_P2;PMS_P1;PMS_P2;Temp;Humidity;BMP_temperature;BMP_pressure;BME280_temperature;BME280_humidity;BME280_pressure;Samples;Min_cycle;Max_cycle;Signal;HPM_P1;HPM_P2
2022/05/31 00:00:41;;;;;;;2.37;2.10;;;10.90;99.90;;;;;;5108383;28;20608;-90
2022/05/31 00:03:09;;;;;;;2.70;1.93;;;10.90;99.90;;;;;;5092939;28;20684;-89
2022/05/31 00:05:38;;;;;;;3.00;1.50;;;10.80;99.90;;;;;;5089661;28;20627;-90
2022/05/31 00:08:06;;;;;;;2.50;1.93;;;10.30;99.90;;;;;;5088097;28;20636;-89
2022/05/31 00:10:32;;;;;;;2.93;2.73;;;10.60;99.90;;;;;;5090234;28;20635;-88
2022/05/31 00:12:59;;;;;;;1.93;1.83;;;10.80;99.90;;;;;;5085619;28;20632;-90
2022/05/31 00:15:26;;;;;;;2.00;1.80;;;10.50;99.90;;;;;;5092519;28;20628;-90
2022/05/31 00:17:54;;;;;;;2.87;2.20;;;10.20;99.90;;;;;;5084541;28;20693;-89
2022/05/31 00:20:21;;;;;;;1.70;1.60;;;10.20;99.90;;;;;;5087295;28;20631;-89
2022/05/31 00:22:49;;;;;;;3.97;2.13;;;10.30;99.90;;;;;;5076188;28;20624;-91
2022/05/31 00:25:16;;;;;;;2.10;1.90;;;10.00;99.90;;;;;;5091043;28;20988;-90
2022/05/31 00:27:45;;;;;;;2.90;2.70;;;10.20;99.90;;;;;;5088689;28;20617;-90
2022/05/31 00:30:13;;;;;;;1.87;1.77;;;10.40;99.90;;;;;;5092497;28;20635;-90
2022/05/31 00:32:49;;;;;;;2.10;1.90;;;10.40;99.90;;;;;;5092245;28;20684;-91
2022/05/31 00:35:25;;;;;;;2.53;2.03;;;9.90;99.90;;;;;;5097967;28;20627;-90
2022/05/31 00:37:54;;;;;;;2.57;2.03;;;10.30;99.90;;;;;;5090206;28;20645;-90
2022/05/31 00:40:23;;;;;;;2.03;1.83;;;10.50;99.90;;;;;;5094847;28;20685;-89
2022/05/31 00:42:55;;;;;;;2.20;2.10;;;10.40;99.90;;;;;;5098355;28;20957;-89
2022/05/31 00:45:25;;;;;;;2.77;2.50;;;9.90;99.90;;;;;;5115397;27;20925;-91
2022/05/31 00:47:53;;;;;;;2.23;1.80;;;10.20;99.90;;;;;;5094998;28;20604;-91
2022/05/31 00:50:29;;;;;;;2.13;1.73;;;10.20;99.90;;;;;;5093994;28;20714;-92
2022/05/31 00:53:10;;;;;;;2.90;2.30;;;10.30;99.90;;;;;;5091715;28;20619;-91
2022/05/31 00:55:45;;;;;;;2.07;1.87;;;9.60;99.90;;;;;;5086740;28;20643;-91
2022/05/31 00:58:17;;;;;;;2.37;1.93;;;9.50;99.90;;;;;;5085447;28;20651;-91
2022/05/31 01:00:46;;;;;;;2.97;2.20;;;9.90;99.90;;;;;;5091589;28;20640;-91
2022/05/31 01:03:19;;;;;;;2.00;1.67;;;9.50;99.90;;;;;;5092902;28;20999;-90
2022/05/31 01:05:46;;;;;;;2.37;1.90;;;10.10;99.90;;;;;;5098080;28;20640;-91
2022/05/31 01:08:15;;;;;;;2.77;1.80;;;9.90;99.90;;;;;;5097547;28;20643;-91
2022/05/31 01:10:44;;;;;;;1.57;1.47;;;10.00;99.90;;;;;;5088527;28;20611;-91
2022/05/31 01:13:14;;;;;;;2.33;1.90;;;9.40;99.90;;;;;;5092564;28;20927;-91
2022/05/31 01:15:42;;;;;;;2.10;2.00;;;9.80;99.90;;;;;;5087633;28;20640;-91
2022/05/31 01:18:11;;;;;;;1.73;1.60;;;9.50;99.90;;;;;;5096908;28;20659;-91
2022/05/31 01:20:42;;;;;;;2.13;1.70;;;9.70;99.90;;;;;;5089301;28;20630;-91
2022/05/31 01:23:12;;;;;;;2.20;1.70;;;9.40;99.90;;;;;;5091170;28;20663;-91
2022/05/31 01:25:57;;;;;;;2.00;1.80;;;9.80;99.90;;;;;;5092419;28;20980;-91
2022/05/31 01:28:37;;;;;;;2.40;2.07;;;9.80;99.90;;;;;;5085679;28;20689;-92
2022/05/31 01:31:09;;;;;;;1.73;1.63;;;9.80;99.90;;;;;;5097974;28;20637;-92
2022/05/31 01:33:43;;;;;;;1.70;1.60;;;9.40;99.90;;;;;;5095982;28;20647;-92
2022/05/31 01:36:16;;;;;;;1.60;1.50;;;9.10;99.90;;;;;;5089470;28;20632;-91
2022/05/31 01:38:48;;;;;;;2.30;1.60;;;9.30;99.90;;;;;;5088861;28;20648;-91
2022/05/31 01:41:23;;;;;;;2.13;1.90;;;9.20;99.90;;;;;;5099071;28;20671;-91
2022/05/31 01:43:52;;;;;;;1.77;1.67;;;9.60;99.90;;;;;;5095740;28;20651;-91
2022/05/31 01:46:24;;;;;;;1.67;1.50;;;9.10;99.90;;;;;;5093080;28;20728;-90
2022/05/31 01:48:52;;;;;;;2.87;2.00;;;9.10;99.90;;;;;;5091376;28;20952;-91
2022/05/31 01:51:23;;;;;;;1.73;1.63;;;9.10;99.90;;;;;;5095457;28;20626;-90
2022/05/31 01:53:54;;;;;;;3.33;1.83;;;9.10;99.90;;;;;;5094287;28;20679;-92
2022/05/31 01:56:22;;;;;;;1.80;1.70;;;9.10;99.90;;;;;;5095890;28;20720;-91
2022/05/31 01:58:51;;;;;;;1.80;1.70;;;9.10;99.90;;;;;;5082375;28;21018;-92
2022/05/31 02:01:18;;;;;;;2.50;2.30;;;9.50;99.90;;;;;;5094957;28;20631;-91
2022/05/31 02:03:47;;;;;;;1.60;1.50;;;9.30;99.90;;;;;;5092079;28;20659;-90
2022/05/31 02:06:31;;;;;;;3.10;1.90;;;9.40;99.90;;;;;;5089999;28;20643;-89
2022/05/31 02:08:58;;;;;;;3.00;1.80;;;9.00;99.90;;;;;;5088211;28;20652;-89
2022/05/31 02:11:26;;;;;;;4.53;2.23;;;8.90;99.90;;;;;;5089824;28;20715;-89
2022/05/31 02:13:53;;;;;;;3.17;2.20;;;8.90;99.90;;;;;;5093698;28;20648;-89
2022/05/31 02:16:20;;;;;;;2.30;1.90;;;8.80;99.90;;;;;;5100737;28;20634;-89
2022/05/31 02:21:36;;;;;;;2.90;1.80;;;9.40;99.90;;;;;;5100709;28;21168;-92
2022/05/31 02:24:11;;;;;;;2.50;2.30;;;9.30;99.90;;;;;;5097961;28;20668;-93
2022/05/31 02:26:42;;;;;;;2.13;1.90;;;9.20;99.90;;;;;;5097377;28;20995;-92
2022/05/31 02:29:12;;;;;;;2.83;1.70;;;9.10;99.90;;;;;;5094621;28;21162;-92
2022/05/31 02:31:40;;;;;;;1.93;1.83;;;9.40;99.90;;;;;;5100772;28;20635;-91
2022/05/31 02:34:07;;;;;;;2.17;2.00;;;8.90;99.90;;;;;;5095490;28;21055;-90
2022/05/31 02:36:37;;;;;;;2.00;1.90;;;8.70;99.90;;;;;;5096877;28;20623;-90
2022/05/31 02:39:05;;;;;;;1.70;1.60;;;8.80;99.90;;;;;;5098221;28;20677;-92
2022/05/31 02:41:32;;;;;;;2.10;2.00;;;8.70;99.90;;;;;;5093693;28;20630;-92
2022/05/31 02:43:59;;;;;;;2.00;1.87;;;8.90;99.90;;;;;;5100675;28;20647;-92
2022/05/31 02:46:27;;;;;;;2.40;2.20;;;9.10;99.90;;;;;;5075906;28;20636;-91
2022/05/31 02:49:01;;;;;;;1.70;1.60;;;9.10;99.90;;;;;;5103252;28;20657;-91
2022/05/31 02:51:28;;;;;;;3.67;2.47;;;9.20;99.90;;;;;;5077502;28;21212;-90
2022/05/31 02:53:57;;;;;;;4.20;2.20;;;8.80;99.90;;;;;;5113040;28;20643;-90
2022/05/31 02:56:24;;;;;;;3.43;1.97;;;9.10;99.90;;;;;;5095493;28;20649;-90
2022/05/31 02:58:51;;;;;;;3.77;2.10;;;8.60;99.90;;;;;;5095702;28;20687;-90
2022/05/31 03:01:23;;;;;;;1.87;1.77;;;8.50;99.90;;;;;;5092228;28;20651;-90
2022/05/31 03:03:50;;;;;;;2.97;2.30;;;8.40;99.90;;;;;;5091392;28;20691;-90
2022/05/31 03:06:19;;;;;;;3.20;2.30;;;8.60;99.90;;;;;;5097484;28;20615;-90
2022/05/31 03:08:46;;;;;;;2.27;1.73;;;9.00;99.90;;;;;;5101579;28;21017;-90
2022/05/31 03:11:20;;;;;;;3.43;2.40;;;8.90;99.90;;;;;;5102069;28;20636;-91
2022/05/31 03:13:49;;;;;;;2.67;2.40;;;8.60;99.90;;;;;;5094193;28;20644;-91
2022/05/31 03:16:18;;;;;;;2.43;2.20;;;8.60;99.90;;;;;;5093593;28;20695;-90
2022/05/31 03:18:53;;;;;;;2.33;2.20;;;8.50;99.90;;;;;;5104239;28;21254;-91
2022/05/31 03:21:25;;;;;;;2.50;2.30;;;8.30;99.90;;;;;;5096697;28;20626;-91
2022/05/31 03:23:55;;;;;;;2.83;2.60;;;8.20;99.90;;;;;;5092498;28;20700;-88
2022/05/31 03:26:26;;;;;;;2.80;2.57;;;8.90;99.90;;;;;;5091486;28;20639;-90
2022/05/31 03:28:53;;;;;;;3.10;2.50;;;8.50;99.90;;;;;;5109130;28;20719;-91
2022/05/31 03:31:20;;;;;;;3.93;2.80;;;8.10;99.90;;;;;;5107886;28;20628;-90
2022/05/31 03:33:47;;;;;;;2.90;2.70;;;8.30;99.90;;;;;;5106802;28;20663;-90
2022/05/31 03:36:14;;;;;;;4.80;2.90;;;8.50;99.90;;;;;;5098659;28;20620;-90
2022/05/31 03:38:42;;;;;;;4.43;2.50;;;8.30;99.90;;;;;;5095376;28;20989;-90
2022/05/31 03:41:10;;;;;;;3.10;2.87;;;8.20;99.90;;;;;;5092663;28;20592;-91
2022/05/31 03:43:38;;;;;;;2.80;2.20;;;8.60;99.90;;;;;;5093303;28;20655;-90
2022/05/31 03:46:10;;;;;;;3.43;2.63;;;8.50;99.90;;;;;;5095795;28;20628;-90
2022/05/31 03:48:38;;;;;;;3.73;2.40;;;8.30;99.90;;;;;;5094838;28;20655;-89
2022/05/31 03:51:08;;;;;;;3.27;2.80;;;8.80;99.90;;;;;;5089816;28;20986;-90
2022/05/31 03:53:44;;;;;;;3.50;2.57;;;8.50;99.90;;;;;;5098459;28;20683;-92
2022/05/31 03:56:14;;;;;;;3.00;2.80;;;8.70;99.90;;;;;;5091094;28;20631;-90
2022/05/31 03:58:42;;;;;;;2.57;2.37;;;9.00;99.90;;;;;;5100534;28;20701;-90
2022/05/31 04:01:11;;;;;;;3.30;3.10;;;8.40;99.90;;;;;;5106810;28;20628;-92
2022/05/31 04:03:38;;;;;;;2.97;2.77;;;8.50;99.90;;;;;;5091111;28;20655;-93
2022/05/31 04:06:05;;;;;;;3.23;2.93;;;8.90;99.90;;;;;;5098937;28;20653;-87
2022/05/31 04:08:35;;;;;;;3.43;2.83;;;9.10;99.90;;;;;;5091699;28;20679;-91
2022/05/31 04:11:02;;;;;;;4.67;3.53;;;8.90;99.90;;;;;;5093103;28;20966;-90
2022/05/31 04:13:29;;;;;;;3.03;2.73;;;8.40;99.90;;;;;;5077305;28;20691;-90
2022/05/31 04:16:06;;;;;;;3.60;2.80;;;8.80;99.90;;;;;;5082324;27;20983;-88
2022/05/31 04:18:34;;;;;;;3.03;2.83;;;8.90;99.90;;;;;;5092890;28;20652;-88
2022/05/31 04:21:02;;;;;;;3.80;3.07;;;8.70;99.90;;;;;;5085357;28;20624;-88
2022/05/31 04:26:14;;;;;;;3.63;3.33;;;8.50;99.90;;;;;;5088305;28;20622;-90
2022/05/31 04:28:41;;;;;;;3.50;3.20;;;9.00;99.90;;;;;;5088330;28;21035;-91
2022/05/31 04:31:11;;;;;;;3.30;3.00;;;8.70;99.90;;;;;;5087468;28;21184;-88
2022/05/31 04:33:38;;;;;;;3.80;3.50;;;9.00;99.90;;;;;;5092303;28;20663;-89
2022/05/31 04:36:08;;;;;;;3.33;3.00;;;9.00;99.90;;;;;;5090204;28;20675;-89
2022/05/31 04:38:35;;;;;;;3.83;3.10;;;9.00;99.90;;;;;;5094754;28;20665;-88
2022/05/31 04:41:02;;;;;;;3.47;2.70;;;9.10;99.90;;;;;;5096195;28;20620;-88
2022/05/31 04:43:29;;;;;;;3.73;3.30;;;8.90;99.90;;;;;;5086651;28;20659;-89
2022/05/31 04:45:56;;;;;;;4.47;3.30;;;8.60;99.90;;;;;;5087666;28;20641;-91
2022/05/31 04:48:24;;;;;;;5.73;3.40;;;9.20;99.90;;;;;;5071093;28;21005;-88
2022/05/31 04:50:51;;;;;;;3.57;2.80;;;9.30;99.90;;;;;;5086638;28;20630;-90
2022/05/31 04:53:17;;;;;;;3.50;3.20;;;8.90;99.90;;;;;;5094928;28;20659;-90
2022/05/31 04:55:45;;;;;;;3.47;3.20;;;9.40;99.90;;;;;;5091544;28;20640;-88
2022/05/31 04:58:12;;;;;;;3.00;2.70;;;9.50;99.90;;;;;;5063944;28;20651;-88
2022/05/31 05:00:39;;;;;;;4.47;3.10;;;9.50;99.90;;;;;;5099714;28;20628;-90
2022/05/31 05:03:06;;;;;;;4.30;3.33;;;9.20;99.90;;;;;;5098710;28;20673;-90
2022/05/31 05:05:35;;;;;;;4.53;3.80;;;9.70;99.90;;;;;;5102437;28;21170;-90
2022/05/31 05:08:01;;;;;;;4.67;4.27;;;9.70;99.90;;;;;;5094108;28;20650;-90
2022/05/31 05:10:28;;;;;;;6.03;4.70;;;9.90;99.90;;;;;;5096240;28;20635;-89
2022/05/31 05:12:58;;;;;;;4.57;3.83;;;10.10;99.90;;;;;;5073163;28;20628;-90
2022/05/31 05:15:24;;;;;;;4.47;4.07;;;10.20;99.90;;;;;;5072058;28;20624;-90
2022/05/31 05:17:51;;;;;;;3.57;3.30;;;9.70;99.90;;;;;;5093407;28;20620;-90
2022/05/31 05:20:19;;;;;;;3.60;3.30;;;10.30;99.90;;;;;;5089911;28;21218;-89
2022/05/31 05:22:47;;;;;;;4.27;3.20;;;10.40;99.90;;;;;;5092821;28;20635;-91
2022/05/31 05:25:14;;;;;;;3.57;3.27;;;10.40;99.90;;;;;;5090281;28;20650;-90
2022/05/31 05:27:41;;;;;;;7.43;3.90;;;10.60;99.90;;;;;;5088867;28;20747;-89
2022/05/31 05:32:56;;;;;;;4.83;3.93;;;11.00;99.90;;;;;;5091439;28;20753;-90
2022/05/31 05:35:23;;;;;;;5.70;3.70;;;10.50;99.90;;;;;;5095722;28;20620;-89
2022/05/31 05:37:51;;;;;;;4.40;4.00;;;10.90;99.90;;;;;;5092262;28;20630;-88
2022/05/31 05:40:18;;;;;;;5.07;4.57;;;10.60;99.90;;;;;;5093219;28;20678;-89
2022/05/31 05:42:46;;;;;;;4.90;4.20;;;11.20;99.90;;;;;;5089490;28;20630;-89
2022/05/31 05:45:13;;;;;;;4.63;3.67;;;11.00;99.90;;;;;;5091718;28;20637;-92
2022/05/31 05:47:40;;;;;;;3.80;3.50;;;11.50;99.90;;;;;;5098531;28;20632;-91
2022/05/31 05:50:08;;;;;;;3.53;3.33;;;11.60;99.90;;;;;;5090637;28;20620;-95
2022/05/31 05:52:41;;;;;;;4.37;3.33;;;11.70;99.90;;;;;;5091807;28;20754;-92
2022/05/31 05:55:11;;;;;;;3.87;3.17;;;11.60;99.90;;;;;;5095263;28;21198;-92
2022/05/31 05:57:39;;;;;;;3.00;2.70;;;12.20;99.90;;;;;;5091420;28;20613;-91
2022/05/31 06:00:10;;;;;;;4.80;3.80;;;12.20;99.90;;;;;;5096818;28;20679;-91
2022/05/31 06:02:38;;;;;;;4.30;4.00;;;12.30;99.90;;;;;;5106581;28;20720;-90
2022/05/31 06:05:10;;;;;;;4.03;3.37;;;12.40;99.90;;;;;;5097417;28;21243;-91
2022/05/31 06:07:41;;;;;;;3.17;2.97;;;12.60;99.90;;;;;;5097194;28;20643;-91
2022/05/31 06:10:16;;;;;;;3.57;3.27;;;12.70;99.90;;;;;;5095048;28;20615;-90
2022/05/31 06:12:49;;;;;;;3.70;3.40;;;12.80;99.90;;;;;;5100179;28;20663;-91
2022/05/31 06:15:20;;;;;;;5.53;4.07;;;13.00;99.90;;;;;;5098661;28;20632;-91
2022/05/31 06:17:53;;;;;;;6.63;4.07;;;13.10;99.90;;;;;;5098457;28;20623;-90
2022/05/31 06:20:22;;;;;;;6.17;4.50;;;13.30;99.90;;;;;;5098302;28;20660;-90
2022/05/31 06:22:50;;;;;;;4.47;4.07;;;13.40;99.90;;;;;;5099042;28;20659;-90
2022/05/31 06:25:24;;;;;;;4.33;4.00;;;13.40;99.90;;;;;;5102315;28;20994;-91
2022/05/31 06:27:52;;;;;;;6.70;4.43;;;13.50;99.90;;;;;;5072502;28;21026;-90
2022/05/31 06:30:21;;;;;;;7.23;5.60;;;13.40;99.90;;;;;;5092697;28;20628;-88
2022/05/31 06:32:49;;;;;;;4.53;4.10;;;13.50;99.90;;;;;;5093323;28;20644;-90
2022/05/31 06:35:16;;;;;;;4.63;4.03;;;13.70;99.90;;;;;;5098693;28;20632;-92
2022/05/31 06:37:43;;;;;;;3.30;3.00;;;13.90;99.90;;;;;;5102335;28;20636;-91
2022/05/31 06:40:11;;;;;;;4.57;3.70;;;14.00;99.90;;;;;;5097792;28;20659;-91
2022/05/31 06:42:40;;;;;;;4.93;3.67;;;14.10;99.90;;;;;;5098096;28;20671;-92
2022/05/31 06:45:08;;;;;;;4.30;3.60;;;14.20;99.90;;;;;;5106778;28;20603;-91
2022/05/31 06:47:35;;;;;;;3.33;2.83;;;14.30;99.90;;;;;;5092811;28;21146;-90
2022/05/31 06:50:02;;;;;;;4.43;3.37;;;14.40;99.90;;;;;;5094734;28;20612;-90
2022/05/31 06:58:01;;;;;;;3.20;2.90;;;14.70;99.90;;;;;;5104748;28;20628;-90
2022/05/31 07:00:28;;;;;;;4.07;3.43;;;14.90;99.90;;;;;;5102276;28;20666;-89
2022/05/31 07:02:56;;;;;;;3.60;3.13;;;15.00;99.90;;;;;;5092968;28;20660;-89
2022/05/31 07:05:24;;;;;;;9.80;4.37;;;15.10;99.90;;;;;;5096176;28;20666;-89
2022/05/31 07:07:53;;;;;;;6.13;4.63;;;15.10;99.90;;;;;;5093092;28;20637;-88
2022/05/31 07:10:21;;;;;;;5.23;3.13;;;15.10;99.90;;;;;;5093948;28;20608;-89
2022/05/31 07:12:48;;;;;;;3.00;2.80;;;14.90;99.90;;;;;;5101621;28;20646;-88
2022/05/31 07:15:17;;;;;;;4.90;2.87;;;14.90;99.90;;;;;;5098789;28;20692;-89
2022/05/31 07:17:46;;;;;;;4.30;3.23;;;15.20;99.90;;;;;;5096359;28;20655;-88
2022/05/31 07:20:14;;;;;;;3.83;3.43;;;15.20;99.90;;;;;;5090055;28;20778;-88
2022/05/31 07:22:42;;;;;;;3.80;3.07;;;15.30;99.90;;;;;;5095634;28;20737;-88
2022/05/31 07:25:10;;;;;;;3.00;2.63;;;15.50;99.90;;;;;;5094981;28;20616;-89
2022/05/31 07:27:38;;;;;;;4.90;3.10;;;15.70;99.90;;;;;;5104545;28;20621;-89
2022/05/31 07:30:06;;;;;;;6.13;3.33;;;15.70;99.90;;;;;;5102552;28;20647;-89
2022/05/31 07:32:35;;;;;;;6.13;3.43;;;15.90;99.90;;;;;;5107251;28;20642;-89
2022/05/31 07:35:04;;;;;;;5.30;2.93;;;16.00;99.90;;;;;;5092410;28;20627;-92
2022/05/31 07:37:31;;;;;;;3.80;3.10;;;16.30;99.90;;;;;;5096121;28;20754;-89
2022/05/31 07:39:58;;;;;;;5.97;2.90;;;16.40;99.70;;;;;;5102222;28;20773;-89
2022/05/31 07:42:25;;;;;;;4.33;3.43;;;16.50;99.30;;;;;;5092315;28;20988;-89
2022/05/31 07:44:56;;;;;;;5.73;2.87;;;16.70;99.10;;;;;;5086679;28;20723;-89
2022/05/31 07:47:24;;;;;;;4.23;2.80;;;16.80;98.60;;;;;;5069860;28;20632;-89
2022/05/31 07:49:54;;;;;;;2.87;2.50;;;17.00;98.40;;;;;;5090682;28;20636;-89
2022/05/31 07:52:21;;;;;;;4.50;2.83;;;17.10;97.80;;;;;;5089067;28;20628;-89
2022/05/31 07:54:48;;;;;;;2.97;2.70;;;17.20;97.60;;;;;;5091793;28;20619;-88
2022/05/31 07:59:55;;;;;;;3.20;2.90;;;17.20;96.60;;;;;;5089264;28;21217;-89
2022/05/31 08:02:22;;;;;;;1.87;1.63;;;17.40;96.50;;;;;;5090545;28;20632;-90
2022/05/31 08:04:49;;;;;;;2.90;2.00;;;17.50;95.20;;;;;;5090136;28;20629;-90
2022/05/31 08:07:18;;;;;;;3.00;1.77;;;17.70;94.90;;;;;;5089083;28;20640;-89
2022/05/31 08:09:47;;;;;;;4.27;1.67;;;17.80;94.20;;;;;;5089980;28;20669;-89
2022/05/31 08:12:14;;;;;;;3.43;2.23;;;17.90;93.80;;;;;;5079546;28;20682;-89
2022/05/31 08:14:41;;;;;;;5.60;2.70;;;17.90;93.80;;;;;;5094877;28;20627;-89
2022/05/31 08:17:09;;;;;;;4.70;1.90;;;18.00;93.70;;;;;;5094610;28;20618;-89
2022/05/31 08:19:38;;;;;;;3.83;2.20;;;18.10;94.20;;;;;;5094330;28;20766;-89
2022/05/31 08:22:05;;;;;;;2.30;2.10;;;18.20;94.20;;;;;;5092341;28;20769;-89
2022/05/31 08:24:34;;;;;;;2.57;1.80;;;18.30;94.00;;;;;;5094152;28;20624;-88
2022/05/31 08:27:01;;;;;;;2.23;1.93;;;18.50;94.30;;;;;;5074353;28;21139;-89
2022/05/31 08:29:30;;;;;;;3.87;2.03;;;18.60;94.00;;;;;;5092331;28;20632;-88
2022/05/31 08:31:58;;;;;;;2.10;2.00;;;18.70;94.60;;;;;;5088646;28;21485;-89
2022/05/31 08:34:26;;;;;;;3.03;1.73;;;18.80;93.90;;;;;;5087881;28;20711;-89
2022/05/31 08:36:54;;;;;;;2.97;2.03;;;19.00;93.20;;;;;;5088307;28;20725;-90
2022/05/31 08:39:21;;;;;;;5.17;2.03;;;19.00;93.30;;;;;;5090852;28;20822;-90
2022/05/31 08:41:51;;;;;;;2.10;1.90;;;19.10;93.40;;;;;;5097118;28;20639;-89
2022/05/31 08:44:34;;;;;;;2.53;1.77;;;19.30;93.00;;;;;;5096790;28;20623;-89
2022/05/31 08:47:22;;;;;;;2.50;1.63;;;19.40;93.20;;;;;;5087705;28;20628;-87
2022/05/31 08:53:01;;;;;;;2.63;1.67;;;19.70;92.70;;;;;;5092345;28;20610;-88
2022/05/31 08:58:22;;;;;;;2.40;1.70;;;20.00;92.80;;;;;;5079226;28;20670;-88
2022/05/31 09:00:58;;;;;;;2.70;2.00;;;20.10;92.30;;;;;;5085088;28;20675;-87
2022/05/31 09:03:30;;;;;;;2.20;1.47;;;20.00;91.90;;;;;;5089253;28;20739;-88
2022/05/31 09:06:01;;;;;;;3.07;2.00;;;20.20;92.50;;;;;;5088696;28;20750;-87
2022/05/31 09:08:34;;;;;;;1.83;1.67;;;20.50;91.80;;;;;;5086608;28;20632;-88
2022/05/31 09:11:04;;;;;;;1.83;1.60;;;20.70;91.30;;;;;;5091104;28;20617;-87
2022/05/31 09:13:39;;;;;;;2.13;1.90;;;20.80;91.10;;;;;;5089898;28;20664;-88
2022/05/31 09:16:12;;;;;;;2.03;1.47;;;20.90;90.80;;;;;;5092226;28;20676;-88
2022/05/31 09:18:46;;;;;;;1.60;1.50;;;20.80;89.50;;;;;;5089797;28;20647;-88
2022/05/31 09:21:20;;;;;;;2.50;1.53;;;20.80;90.00;;;;;;5091329;28;20651;-88
2022/05/31 09:23:49;;;;;;;1.53;1.43;;;20.90;88.60;;;;;;5094208;28;20637;-88
2022/05/31 09:26:34;;;;;;;1.60;1.50;;;20.90;88.40;;;;;;5088757;28;20713;-88
2022/05/31 09:29:13;;;;;;;2.60;1.50;;;20.90;88.20;;;;;;5087100;28;20616;-87
2022/05/31 09:31:48;;;;;;;8.00;1.80;;;20.90;86.60;;;;;;5082475;28;20624;-88
2022/05/31 09:34:31;;;;;;;2.07;1.87;;;20.90;86.00;;;;;;5086349;28;21218;-88
2022/05/31 09:37:06;;;;;;;3.67;1.50;;;21.00;86.30;;;;;;5090921;28;21262;-89
2022/05/31 09:39:40;;;;;;;3.50;1.63;;;21.10;87.00;;;;;;5083735;28;20642;-89
2022/05/31 09:42:17;;;;;;;3.10;1.30;;;21.20;85.90;;;;;;5089250;28;20632;-88
2022/05/31 09:44:51;;;;;;;2.30;1.33;;;21.30;85.70;;;;;;5088868;28;20656;-88
2022/05/31 09:47:22;;;;;;;2.10;1.33;;;21.50;85.00;;;;;;5086741;28;21289;-90
2022/05/31 09:49:50;;;;;;;3.23;1.50;;;21.70;85.40;;;;;;5087288;28;20713;-88
2022/05/31 09:52:30;;;;;;;2.37;1.37;;;21.70;84.20;;;;;;5085067;28;20688;-87
2022/05/31 09:57:56;;;;;;;8.10;1.40;;;22.00;84.20;;;;;;5084749;28;20610;-89
2022/05/31 10:00:25;;;;;;;3.30;1.57;;;22.30;84.00;;;;;;5085872;28;20667;-89
2022/05/31 10:03:09;;;;;;;2.20;1.87;;;22.40;81.90;;;;;;5074591;28;21418;-89
2022/05/31 10:05:36;;;;;;;4.27;1.60;;;22.60;82.70;;;;;;5090657;28;20589;-87
2022/05/31 10:08:04;;;;;;;3.00;1.53;;;22.40;81.70;;;;;;5087482;28;20998;-88
2022/05/31 10:10:34;;;;;;;2.63;1.13;;;22.50;82.10;;;;;;5093094;28;20628;-87
2022/05/31 10:13:04;;;;;;;1.83;1.30;;;22.80;81.60;;;;;;5097159;28;21039;-87
2022/05/31 10:15:45;;;;;;;1.73;1.50;;;23.10;81.60;;;;;;5091418;28;20673;-87
2022/05/31 10:18:15;;;;;;;3.73;1.67;;;23.30;78.20;;;;;;5091822;28;20654;-88
2022/05/31 10:20:54;;;;;;;4.80;1.27;;;23.30;78.10;;;;;;5089972;28;20687;-88
2022/05/31 10:23:23;;;;;;;2.30;1.43;;;23.50;78.20;;;;;;5093062;28;21258;-88
2022/05/31 10:25:54;;;;;;;3.53;1.87;;;23.70;78.50;;;;;;5093136;28;20638;-89
2022/05/31 10:28:26;;;;;;;1.80;1.30;;;23.80;79.50;;;;;;5086687;28;20635;-88
2022/05/31 10:31:02;;;;;;;2.50;1.33;;;23.90;79.00;;;;;;5091773;28;20620;-88
2022/05/31 10:33:30;;;;;;;4.40;2.00;;;23.90;78.30;;;;;;5087891;28;20681;-88
2022/05/31 10:36:10;;;;;;;2.90;1.40;;;23.80;79.10;;;;;;5089256;28;20623;-88
2022/05/31 10:38:43;;;;;;;2.57;1.30;;;24.00;78.10;;;;;;5087997;28;20630;-88
2022/05/31 10:41:20;;;;;;;1.33;1.10;;;24.20;77.90;;;;;;5090763;28;20714;-88
2022/05/31 10:43:50;;;;;;;6.27;1.50;;;24.40;74.00;;;;;;5091883;28;20655;-88
2022/05/31 10:46:28;;;;;;;1.93;1.43;;;24.60;70.40;;;;;;5089611;28;21116;-88
2022/05/31 10:48:59;;;;;;;1.33;1.23;;;24.80;70.70;;;;;;5089028;28;20643;-88
2022/05/31 10:51:51;;;;;;;2.90;1.50;;;25.10;71.90;;;;;;5089830;28;20627;-88
2022/05/31 10:54:35;;;;;;;1.70;1.40;;;25.30;68.90;;;;;;5083966;28;20651;-88
2022/05/31 10:57:19;;;;;;;1.90;1.47;;;25.30;67.50;;;;;;5089358;28;21013;-89
2022/05/31 10:59:52;;;;;;;2.97;1.83;;;25.40;67.70;;;;;;5088449;28;20620;-90
2022/05/31 11:02:48;;;;;;;2.90;1.53;;;25.60;67.20;;;;;;5084714;28;20632;-91
2022/05/31 11:05:19;;;;;;;1.57;1.47;;;25.80;65.70;;;;;;5092149;28;20632;-89
2022/05/31 11:13:32;;;;;;;3.20;1.77;;;25.90;65.50;;;;;;5092961;28;21213;-88
2022/05/31 11:16:08;;;;;;;3.13;1.80;;;25.90;63.70;;;;;;5095141;28;20627;-88
2022/05/31 11:19:04;;;;;;;5.00;1.73;;;25.70;63.80;;;;;;5096219;28;20630;-90
2022/05/31 11:21:47;;;;;;;2.87;1.70;;;25.70;64.60;;;;;;5086663;28;21693;-88
2022/05/31 11:24:37;;;;;;;3.47;1.87;;;25.70;62.10;;;;;;5093244;28;20646;-89
2022/05/31 11:27:21;;;;;;;2.83;2.10;;;25.90;65.50;;;;;;5089076;28;20632;-89
2022/05/31 11:30:07;;;;;;;4.33;2.37;;;26.10;66.90;;;;;;5087774;28;20595;-92
2022/05/31 11:32:46;;;;;;;4.67;2.13;;;26.40;67.40;;;;;;5098216;28;20713;-89
2022/05/31 11:35:27;;;;;;;2.23;2.03;;;26.40;65.60;;;;;;5096284;28;20649;-87
2022/05/31 11:38:03;;;;;;;3.60;2.33;;;26.50;65.60;;;;;;5091841;28;20636;-87
2022/05/31 11:40:46;;;;;;;4.87;1.93;;;26.30;63.60;;;;;;5098814;28;20694;-88
2022/05/31 11:43:43;;;;;;;3.07;2.40;;;26.50;65.20;;;;;;5090462;28;20663;-88
2022/05/31 11:46:17;;;;;;;4.10;2.40;;;26.80;64.20;;;;;;5086029;28;20628;-88
2022/05/31 11:48:57;;;;;;;2.20;1.73;;;27.10;63.70;;;;;;5088906;28;20624;-89
2022/05/31 11:51:37;;;;;;;5.17;1.80;;;27.40;61.50;;;;;;5097218;28;20629;-91
2022/05/31 11:54:27;;;;;;;3.60;2.50;;;27.80;61.40;;;;;;5089650;28;20758;-90
2022/05/31 11:57:09;;;;;;;3.70;1.97;;;28.00;59.70;;;;;;5094621;28;20627;-88
2022/05/31 11:59:43;;;;;;;2.70;1.77;;;28.10;60.70;;;;;;5091685;28;20636;-87
2022/05/31 12:02:21;;;;;;;5.33;1.90;;;28.40;60.00;;;;;;5097466;28;20658;-88
2022/05/31 12:04:55;;;;;;;3.10;2.23;;;28.50;59.20;;;;;;5092945;28;20658;-89
2022/05/31 12:07:27;;;;;;;1.80;1.70;;;28.60;58.00;;;;;;5090047;28;21230;-88
2022/05/31 12:09:58;;;;;;;3.47;1.50;;;28.50;57.50;;;;;;5093210;28;20886;-87
2022/05/31 12:12:30;;;;;;;2.80;1.87;;;28.20;57.00;;;;;;5091298;28;20629;-88
2022/05/31 12:15:05;;;;;;;7.40;2.07;;;28.00;56.20;;;;;;5086700;28;20660;-88
2022/05/31 12:17:37;;;;;;;3.03;2.57;;;27.90;55.60;;;;;;5090299;28;20669;-88
2022/05/31 12:20:14;;;;;;;2.77;2.40;;;27.80;55.70;;;;;;5094260;28;20616;-89
2022/05/31 12:22:48;;;;;;;3.03;1.83;;;27.70;55.80;;;;;;5091277;28;20665;-87
2022/05/31 12:25:21;;;;;;;8.70;2.70;;;27.80;56.10;;;;;;5087583;28;21267;-91
2022/05/31 12:27:54;;;;;;;4.50;1.57;;;27.80;54.60;;;;;;5088723;28;20619;-88
2022/05/31 12:30:25;;;;;;;2.70;1.40;;;27.60;54.90;;;;;;5089596;28;20628;-87
2022/05/31 12:32:54;;;;;;;2.90;1.93;;;27.30;53.90;;;;;;5090039;28;20603;-88
2022/05/31 12:35:57;;;;;;;4.53;1.83;;;27.30;54.70;;;;;;5096217;28;20631;-87
2022/05/31 12:38:26;;;;;;;1.70;1.50;;;27.40;54.40;;;;;;5062853;28;21129;-87
2022/05/31 12:40:54;;;;;;;3.40;1.80;;;27.50;53.70;;;;;;5094011;28;20667;-86
2022/05/31 12:43:55;;;;;;;2.83;2.00;;;27.50;53.40;;;;;;5097983;28;20971;-89
2022/05/31 12:46:38;;;;;;;2.13;1.57;;;27.50;52.70;;;;;;5090484;28;20735;-88
2022/05/31 12:49:09;;;;;;;2.07;1.83;;;27.80;54.40;;;;;;5097377;28;21183;-90
2022/05/31 12:51:37;;;;;;;2.73;1.70;;;28.00;52.30;;;;;;5083814;28;20636;-90
2022/05/31 12:54:12;;;;;;;2.13;1.90;;;28.10;53.20;;;;;;5090844;28;20660;-89
2022/05/31 12:56:58;;;;;;;4.30;1.80;;;28.30;53.10;;;;;;5090330;28;20636;-88
2022/05/31 12:59:56;;;;;;;1.93;1.53;;;28.30;51.80;;;;;;5089225;28;20705;-88
2022/05/31 13:02:38;;;;;;;1.80;1.70;;;28.40;51.80;;;;;;5089630;28;21213;-87
2022/05/31 13:05:32;;;;;;;3.73;1.73;;;28.60;51.50;;;;;;5096235;28;20685;-89
2022/05/31 13:08:13;;;;;;;1.97;1.77;;;28.80;51.70;;;;;;5092946;28;20653;-89
2022/05/31 13:19:34;;;;;;;2.33;1.87;;;29.00;50.50;;;;;;5095470;28;20640;-88
2022/05/31 13:21:55;;;;;;;5.23;2.03;;;29.50;49.70;;;;;;5087749;28;21307;-89
2022/05/31 13:24:23;;;;;;;5.20;1.57;;;29.90;48.80;;;;;;5091273;28;20658;-87
2022/05/31 13:26:53;;;;;;;1.77;1.30;;;30.10;47.40;;;;;;5096070;28;20631;-87
2022/05/31 13:29:23;;;;;;;2.00;1.47;;;29.80;46.80;;;;;;5089792;28;20628;-89
2022/05/31 13:31:54;;;;;;;1.43;1.33;;;30.00;46.70;;;;;;5096309;28;20647;-90
2022/05/31 13:34:42;;;;;;;5.90;1.60;;;30.10;45.90;;;;;;5091548;28;20701;-88
2022/05/31 13:37:16;;;;;;;3.83;1.40;;;30.30;46.00;;;;;;5095909;28;20676;-89
2022/05/31 13:39:46;;;;;;;2.20;1.57;;;30.60;45.30;;;;;;5094501;28;20647;-88
2022/05/31 13:42:23;;;;;;;4.30;1.67;;;30.80;45.70;;;;;;5085607;28;20627;-88
2022/05/31 13:44:50;;;;;;;3.53;1.47;;;31.10;44.40;;;;;;5101066;28;21618;-89
2022/05/31 13:47:20;;;;;;;3.20;1.63;;;31.00;43.80;;;;;;5089556;28;20650;-88
2022/05/31 13:49:49;;;;;;;2.77;1.40;;;30.70;43.90;;;;;;5091076;28;20638;-87
2022/05/31 13:52:28;;;;;;;3.47;1.27;;;30.20;43.60;;;;;;5092854;28;20660;-89